Wednesday, January 17, 2018, 6:26 AM EST
Back to Local

KLEB, Lebanon Municipal Airport

Location: Lebanon, NH, United States Lat: 43.633
Local Time: 6:26 AM EST (11:26 GMT) Lon: -72.3
Time Zone: US/Eastern Elev: 597 ft

Show me the last for .
Show Decoded

2018-01-17 06:10 METAR KLEB 171110Z 33003KT 2 1/2SM -SN BR BKN028 OVC055 M03/M04 A3031 RMK AO2
                 P0000 T10331044 =
2018-01-17 05:53 METAR KLEB 171053Z 32003KT 1 3/4SM -SN BR OVC022 M03/M04 A3031 RMK AO2 SLP276
                 P0002 T10331044 =
2018-01-17 04:53 METAR KLEB 170953Z AUTO 33003KT 1 3/4SM -SN BR OVC019 M03/M04 A3032 RMK AO2
                 SLP278 P0002 T10331044 =
2018-01-17 04:10 METAR KLEB 170910Z AUTO 35003KT 1 1/2SM -SN BR OVC019 M03/M04 A3032 RMK AO2
                 P0001 T10331044 =
2018-01-17 03:53 METAR KLEB 170853Z AUTO 34003KT 2SM -SN BR OVC023 M03/M04 A3032 RMK AO2 SLP280
                 P0001 60003 T10331044 58008 =
2018-01-17 03:30 METAR KLEB 170830Z AUTO 00000KT 1 3/4SM -SN BR OVC024 M03/M04 A3033 RMK AO2
                 P0001 T10331044 =
2018-01-17 02:53 METAR KLEB 170753Z AUTO 00000KT 2SM -SN BR OVC028 M03/M04 A3034 RMK AO2 SLP284
                 P0000 T10331044 =
2018-01-17 02:45 METAR KLEB 170745Z AUTO 00000KT 2SM -SN BR OVC027 M03/M04 A3033 RMK AO2 P0000
                 T10331044 =
2018-01-17 02:29 METAR KLEB 170729Z AUTO 32003KT 1 3/4SM -SN BR OVC027 M03/M04 A3034 RMK AO2
                 P0000 T10331044 =
2018-01-17 02:04 METAR KLEB 170704Z AUTO 33003KT 2SM -SN BR OVC025 M03/M04 A3034 RMK AO2 P0000
                 T10331044 =
2018-01-17 01:53 METAR KLEB 170653Z AUTO 00000KT 1 3/4SM -SN BR OVC023 M03/M04 A3034 RMK AO2
                 SLP285 P0002 T10331044 =
2018-01-17 01:20 METAR KLEB 170620Z AUTO 03003KT 1 3/4SM -SN BR OVC024 M03/M04 A3034 RMK AO2
                 P0001 T10331044 =
2018-01-17 00:53 METAR KLEB 170553Z AUTO 36003KT 2SM -SN BR OVC024 M03/M04 A3035 RMK AO2 SLP288
                 P0001 60006 T10331039 11028 21033 55011 =
2018-01-17 00:49 METAR KLEB 170549Z AUTO 36003KT 2SM -SN BR OVC023 M03/M04 A3035 RMK AO2 P0001 =
2018-01-17 00:41 METAR KLEB 170541Z AUTO 36003KT 1 3/4SM -SN BR OVC023 M03/M04 A3035 RMK AO2
                 P0001 T10331044 =
2018-01-17 00:29 METAR KLEB 170529Z AUTO 34003KT 2SM -SN BR OVC023 M03/M04 A3035 RMK AO2 P0001
                 T10331044 =
2018-01-16 23:53 METAR KLEB 170453Z AUTO 00000KT 1 1/2SM -SN BR OVC015 M03/M04 A3036 RMK AO2
                 SLP294 P0002 T10281044 410171094 =
2018-01-16 22:53 METAR KLEB 170353Z AUTO 00000KT 1 3/4SM -SN BR OVC023 M03/M04 A3038 RMK AO2
                 SLP300 P0002 T10281039 =
2018-01-16 22:03 METAR KLEB 170303Z AUTO 00000KT 2SM -SN BR OVC026 M03/M04 A3039 RMK AO2 P0001
                 T10281039 =
2018-01-16 21:53 METAR KLEB 170253Z 00000KT 1 3/4SM -SN BR OVC024 M03/M04 A3039 RMK AO2 SLP303
                 P0001 60001 T10281039 57001 =
2018-01-16 21:48 METAR KLEB 170248Z 00000KT 1 3/4SM -SN BR OVC024 M03/M04 A3038 RMK AO2 P0001 =
2018-01-16 21:40 METAR KLEB 170240Z 00000KT 2SM -SN BR OVC026 M03/M04 A3038 RMK AO2 P0001
                 T10281044 =
2018-01-16 21:05 METAR KLEB 170205Z 00000KT 2 1/2SM -SN BR OVC040 M03/M04 A3038 RMK AO2 P0001
                 T10281039 =
2018-01-16 20:53 METAR KLEB 170153Z 00000KT 3SM -SN BR OVC044 M03/M04 A3039 RMK AO2 SLP304 P0000
                 T10281044 =
2018-01-16 19:53 METAR KLEB 170053Z 00000KT 3SM -SN BR OVC038 M03/M04 A3039 RMK AO2 SLP304 P0000
                 T10281044 =
2018-01-16 18:53 METAR KLEB 162353Z 00000KT 4SM -SN BR OVC060 M03/M04 A3040 RMK AO2 SLP306 P0000
                 60000 T10281044 11017 21028 51002 =
2018-01-16 17:53 METAR KLEB 162253Z 00000KT 4SM -SN BR BKN046 OVC065 M03/M04 A3040 RMK AO2 SLP306
                 P0000 T10281044 =
2018-01-16 16:53 METAR KLEB 162153Z 21004KT 5SM -SN OVC050 M02/M06 A3039 RMK AO2 SNB53 SLP305
                 P0000 T10221056 =
2018-01-16 15:53 METAR KLEB 162053Z 22003KT 10SM OVC048 M02/M07 A3039 RMK AO2 SLP304 T10171067
                 55001 =
2018-01-16 14:53 METAR KLEB 161953Z 23005KT 10SM SCT060 BKN075 M02/M08 A3038 RMK AO2 SLP300
                 T10171078 =
2018-01-16 13:53 METAR KLEB 161853Z 23004KT 10SM BKN070 BKN090 M02/M08 A3038 RMK AO2 SLP300
                 T10221078 =
2018-01-16 12:53 METAR KLEB 161753Z 24004KT 10SM BKN055 M03/M08 A3039 RMK AO2 SLP305 60000
                 T10281083 11028 21094 56026 =
2018-01-16 11:53 METAR KLEB 161653Z VRB05KT 10SM BKN040 M04/M09 A3041 RMK AO2 SLP313 T10391089 =
2018-01-16 10:53 METAR KLEB 161553Z 18004KT 10SM OVC031 M05/M10 A3044 RMK AO2 SNE04 SLP324 P0000
                 T10501100 =
2018-01-16 10:19 METAR KLEB 161519Z 17009KT 10SM OVC030 M06/M11 A3046 RMK AO2 SNE04 P0000
                 T10561106 =
2018-01-16 09:53 METAR KLEB 161453Z 17007KT 8SM -SN FEW020 OVC028 M06/M11 A3047 RMK AO2 SNB52
                 SLP334 P0000 60000 T10611106 51004 =
2018-01-16 08:53 METAR KLEB 161353Z 00000KT 10SM OVC029 M08/M11 A3046 RMK AO2 SLP333 T10831111 =
2018-01-16 07:53 METAR KLEB 161253Z 00000KT 10SM OVC034 M09/M12 A3046 RMK AO2 SLP330 T10891117 =
2018-01-16 06:53 METAR KLEB 161153Z 00000KT 8SM BKN043 BKN110 M09/M12 A3046 RMK AO2 SLP331
                 T10891122 11089 21094 55000 =

Support USWX by starting your Amazon purchase here.